sensor_id;sensor_type;location;lat;lon;timestamp;P1;durP1;ratioP1;P2;durP2;ratioP2
70008;SDS011;59542;37.950;-122.338;2023-09-19T00:00:22;4.63;;;2.40;;
70008;SDS011;59542;37.950;-122.338;2023-09-19T00:02:54;4.32;;;2.92;;
70008;SDS011;59542;37.950;-122.338;2023-09-19T00:05:28;4.60;;;2.50;;
70008;SDS011;59542;37.950;-122.338;2023-09-19T00:07:56;2.58;;;2.13;;
70008;SDS011;59542;37.950;-122.338;2023-09-19T00:10:26;2.92;;;2.22;;
70008;SDS011;59542;37.950;-122.338;2023-09-19T00:12:56;6.00;;;2.63;;
70008;SDS011;59542;37.950;-122.338;2023-09-19T00:15:30;3.35;;;2.10;;
70008;SDS011;59542;37.950;-122.338;2023-09-19T00:18:03;3.22;;;2.03;;
70008;SDS011;59542;37.950;-122.338;2023-09-19T00:20:31;3.28;;;1.98;;
70008;SDS011;59542;37.950;-122.338;2023-09-19T00:23:00;3.13;;;1.92;;
70008;SDS011;59542;37.950;-122.338;2023-09-19T00:25:37;2.60;;;2.00;;
70008;SDS011;59542;37.950;-122.338;2023-09-19T00:28:04;3.40;;;2.15;;
70008;SDS011;59542;37.950;-122.338;2023-09-19T00:30:31;4.22;;;2.40;;
70008;SDS011;59542;37.950;-122.338;2023-09-19T00:32:58;3.85;;;2.50;;
70008;SDS011;59542;37.950;-122.338;2023-09-19T00:35:25;3.83;;;2.60;;
70008;SDS011;59542;37.950;-122.338;2023-09-19T00:37:52;4.15;;;2.28;;
70008;SDS011;59542;37.950;-122.338;2023-09-19T00:40:19;4.95;;;2.30;;
70008;SDS011;59542;37.950;-122.338;2023-09-19T00:42:46;2.88;;;2.10;;
70008;SDS011;59542;37.950;-122.338;2023-09-19T00:45:14;3.63;;;2.38;;
70008;SDS011;59542;37.950;-122.338;2023-09-19T00:47:46;3.75;;;2.20;;
70008;SDS011;59542;37.950;-122.338;2023-09-19T00:50:15;5.40;;;2.45;;
70008;SDS011;59542;37.950;-122.338;2023-09-19T00:52:44;3.78;;;2.33;;
70008;SDS011;59542;37.950;-122.338;2023-09-19T00:55:14;4.40;;;2.20;;
70008;SDS011;59542;37.950;-122.338;2023-09-19T00:57:41;3.75;;;2.22;;
70008;SDS011;59542;37.950;-122.338;2023-09-19T01:00:09;2.45;;;2.05;;
70008;SDS011;59542;37.950;-122.338;2023-09-19T01:02:40;4.03;;;2.42;;
70008;SDS011;59542;37.950;-122.338;2023-09-19T01:05:10;4.10;;;2.45;;
70008;SDS011;59542;37.950;-122.338;2023-09-19T01:07:37;4.68;;;2.28;;
70008;SDS011;59542;37.950;-122.338;2023-09-19T01:10:08;4.97;;;2.70;;
70008;SDS011;59542;37.950;-122.338;2023-09-19T01:15:30;4.53;;;2.15;;
70008;SDS011;59542;37.950;-122.338;2023-09-19T01:26:56;4.90;;;2.92;;
70008;SDS011;59542;37.950;-122.338;2023-09-19T01:29:49;4.15;;;2.90;;
70008;SDS011;59542;37.950;-122.338;2023-09-19T01:32:19;2.80;;;2.10;;
70008;SDS011;59542;37.950;-122.338;2023-09-19T01:34:54;4.30;;;2.97;;
70008;SDS011;59542;37.950;-122.338;2023-09-19T01:37:29;3.58;;;2.20;;
70008;SDS011;59542;37.950;-122.338;2023-09-19T01:56:51;3.47;;;2.58;;
70008;SDS011;59542;37.950;-122.338;2023-09-19T01:59:28;4.43;;;2.50;;
70008;SDS011;59542;37.950;-122.338;2023-09-19T02:02:01;5.07;;;2.60;;
70008;SDS011;59542;37.950;-122.338;2023-09-19T02:04:28;4.28;;;2.97;;
70008;SDS011;59542;37.950;-122.338;2023-09-19T02:06:55;4.63;;;3.47;;
70008;SDS011;59542;37.950;-122.338;2023-09-19T02:09:22;4.80;;;2.90;;
70008;SDS011;59542;37.950;-122.338;2023-09-19T02:11:48;5.45;;;3.22;;
70008;SDS011;59542;37.950;-122.338;2023-09-19T02:14:15;4.13;;;3.05;;
70008;SDS011;59542;37.950;-122.338;2023-09-19T02:16:41;4.88;;;3.20;;
70008;SDS011;59542;37.950;-122.338;2023-09-19T02:19:07;7.88;;;3.60;;
70008;SDS011;59542;37.950;-122.338;2023-09-19T02:21:33;3.72;;;3.38;;
70008;SDS011;59542;37.950;-122.338;2023-09-19T02:24:00;8.38;;;2.60;;
70008;SDS011;59542;37.950;-122.338;2023-09-19T02:26:26;3.83;;;2.60;;
70008;SDS011;59542;37.950;-122.338;2023-09-19T02:28:52;4.30;;;2.50;;
70008;SDS011;59542;37.950;-122.338;2023-09-19T02:31:19;3.60;;;2.20;;
70008;SDS011;59542;37.950;-122.338;2023-09-19T02:33:45;3.88;;;2.30;;
70008;SDS011;59542;37.950;-122.338;2023-09-19T02:36:11;2.85;;;2.40;;
70008;SDS011;59542;37.950;-122.338;2023-09-19T02:38:42;4.10;;;2.42;;
70008;SDS011;59542;37.950;-122.338;2023-09-19T02:41:09;2.75;;;2.00;;
70008;SDS011;59542;37.950;-122.338;2023-09-19T02:43:35;2.80;;;2.20;;
70008;SDS011;59542;37.950;-122.338;2023-09-19T02:46:02;3.17;;;2.85;;
70008;SDS011;59542;37.950;-122.338;2023-09-19T02:48:28;3.60;;;2.55;;
70008;SDS011;59542;37.950;-122.338;2023-09-19T02:50:54;2.90;;;2.50;;
70008;SDS011;59542;37.950;-122.338;2023-09-19T02:53:21;3.50;;;2.72;;
70008;SDS011;59542;37.950;-122.338;2023-09-19T02:55:47;3.83;;;3.10;;
70008;SDS011;59542;37.950;-122.338;2023-09-19T02:58:14;3.78;;;2.83;;
70008;SDS011;59542;37.950;-122.338;2023-09-19T03:00:40;4.32;;;2.80;;
70008;SDS011;59542;37.950;-122.338;2023-09-19T03:03:07;3.92;;;2.90;;
70008;SDS011;59542;37.950;-122.338;2023-09-19T03:05:34;3.40;;;2.97;;
70008;SDS011;59542;37.950;-122.338;2023-09-19T03:08:00;3.17;;;2.78;;
70008;SDS011;59542;37.950;-122.338;2023-09-19T03:10:27;3.92;;;2.83;;
70008;SDS011;59542;37.950;-122.338;2023-09-19T03:12:54;5.18;;;3.28;;
70008;SDS011;59542;37.950;-122.338;2023-09-19T03:15:21;4.22;;;2.95;;
70008;SDS011;59542;37.950;-122.338;2023-09-19T03:17:47;4.07;;;3.15;;
70008;SDS011;59542;37.950;-122.338;2023-09-19T03:20:15;4.13;;;3.40;;
70008;SDS011;59542;37.950;-122.338;2023-09-19T03:22:44;3.50;;;3.10;;
70008;SDS011;59542;37.950;-122.338;2023-09-19T03:25:11;4.95;;;3.80;;
70008;SDS011;59542;37.950;-122.338;2023-09-19T03:27:39;5.45;;;3.25;;
70008;SDS011;59542;37.950;-122.338;2023-09-19T03:30:05;4.30;;;3.38;;
70008;SDS011;59542;37.950;-122.338;2023-09-19T03:32:47;5.35;;;3.40;;
70008;SDS011;59542;37.950;-122.338;2023-09-19T03:35:18;4.13;;;3.30;;
70008;SDS011;59542;37.950;-122.338;2023-09-19T03:37:44;4.25;;;3.15;;
70008;SDS011;59542;37.950;-122.338;2023-09-19T03:40:11;4.30;;;3.63;;
70008;SDS011;59542;37.950;-122.338;2023-09-19T03:42:42;4.18;;;3.58;;
70008;SDS011;59542;37.950;-122.338;2023-09-19T03:45:08;4.57;;;3.60;;
70008;SDS011;59542;37.950;-122.338;2023-09-19T03:47:38;4.60;;;3.50;;
70008;SDS011;59542;37.950;-122.338;2023-09-19T03:50:06;4.55;;;3.85;;
70008;SDS011;59542;37.950;-122.338;2023-09-19T03:52:40;4.75;;;3.55;;
70008;SDS011;59542;37.950;-122.338;2023-09-19T03:55:07;3.85;;;3.35;;
70008;SDS011;59542;37.950;-122.338;2023-09-19T03:57:35;4.30;;;3.58;;
70008;SDS011;59542;37.950;-122.338;2023-09-19T04:00:02;3.83;;;3.28;;
70008;SDS011;59542;37.950;-122.338;2023-09-19T04:02:37;4.72;;;3.78;;
70008;SDS011;59542;37.950;-122.338;2023-09-19T04:05:05;4.78;;;3.50;;
70008;SDS011;59542;37.950;-122.338;2023-09-19T04:07:31;5.93;;;3.90;;
70008;SDS011;59542;37.950;-122.338;2023-09-19T04:09:57;5.25;;;3.83;;
70008;SDS011;59542;37.950;-122.338;2023-09-19T04:12:24;4.78;;;3.22;;
70008;SDS011;59542;37.950;-122.338;2023-09-19T04:14:50;6.07;;;3.55;;
70008;SDS011;59542;37.950;-122.338;2023-09-19T04:17:17;5.35;;;4.00;;
70008;SDS011;59542;37.950;-122.338;2023-09-19T04:19:43;5.00;;;3.30;;
70008;SDS011;59542;37.950;-122.338;2023-09-19T04:22:11;5.15;;;3.70;;
70008;SDS011;59542;37.950;-122.338;2023-09-19T04:24:38;5.40;;;4.43;;
70008;SDS011;59542;37.950;-122.338;2023-09-19T04:27:04;7.72;;;4.85;;
70008;SDS011;59542;37.950;-122.338;2023-09-19T04:29:32;5.55;;;4.07;;
70008;SDS011;59542;37.950;-122.338;2023-09-19T04:31:58;4.20;;;3.78;;
70008;SDS011;59542;37.950;-122.338;2023-09-19T04:34:25;4.50;;;3.83;;
70008;SDS011;59542;37.950;-122.338;2023-09-19T04:36:51;5.82;;;3.65;;
70008;SDS011;59542;37.950;-122.338;2023-09-19T04:39:18;4.43;;;3.90;;
70008;SDS011;59542;37.950;-122.338;2023-09-19T04:41:44;4.72;;;3.58;;
70008;SDS011;59542;37.950;-122.338;2023-09-19T04:44:13;3.75;;;3.38;;
70008;SDS011;59542;37.950;-122.338;2023-09-19T04:46:39;4.82;;;3.55;;
70008;SDS011;59542;37.950;-122.338;2023-09-19T04:49:05;4.00;;;3.45;;
70008;SDS011;59542;37.950;-122.338;2023-09-19T04:51:32;5.82;;;3.78;;
70008;SDS011;59542;37.950;-122.338;2023-09-19T04:54:00;5.20;;;4.07;;
70008;SDS011;59542;37.950;-122.338;2023-09-19T04:56:27;6.80;;;4.45;;
70008;SDS011;59542;37.950;-122.338;2023-09-19T04:58:54;4.97;;;3.53;;
70008;SDS011;59542;37.950;-122.338;2023-09-19T05:01:20;5.13;;;3.95;;
70008;SDS011;59542;37.950;-122.338;2023-09-19T05:03:47;5.38;;;4.30;;
70008;SDS011;59542;37.950;-122.338;2023-09-19T05:06:20;5.25;;;4.10;;
70008;SDS011;59542;37.950;-122.338;2023-09-19T05:08:47;5.30;;;4.38;;
70008;SDS011;59542;37.950;-122.338;2023-09-19T05:11:21;7.03;;;4.85;;
70008;SDS011;59542;37.950;-122.338;2023-09-19T05:13:48;7.05;;;4.55;;
70008;SDS011;59542;37.950;-122.338;2023-09-19T05:16:21;9.07;;;5.45;;
70008;SDS011;59542;37.950;-122.338;2023-09-19T05:18:47;8.85;;;5.32;;
70008;SDS011;59542;37.950;-122.338;2023-09-19T05:21:15;7.22;;;5.18;;
70008;SDS011;59542;37.950;-122.338;2023-09-19T05:23:41;8.02;;;5.68;;
70008;SDS011;59542;37.950;-122.338;2023-09-19T05:26:07;6.95;;;5.10;;
70008;SDS011;59542;37.950;-122.338;2023-09-19T05:28:34;10.20;;;5.25;;
70008;SDS011;59542;37.950;-122.338;2023-09-19T05:31:01;8.85;;;5.55;;
70008;SDS011;59542;37.950;-122.338;2023-09-19T05:33:30;8.40;;;5.55;;
70008;SDS011;59542;37.950;-122.338;2023-09-19T05:35:57;6.30;;;5.07;;
70008;SDS011;59542;37.950;-122.338;2023-09-19T05:38:23;7.30;;;4.75;;
70008;SDS011;59542;37.950;-122.338;2023-09-19T05:40:51;8.05;;;5.88;;
70008;SDS011;59542;37.950;-122.338;2023-09-19T05:43:18;8.48;;;5.47;;
70008;SDS011;59542;37.950;-122.338;2023-09-19T05:45:44;7.32;;;5.20;;
70008;SDS011;59542;37.950;-122.338;2023-09-19T05:48:11;7.50;;;5.55;;
70008;SDS011;59542;37.950;-122.338;2023-09-19T05:50:40;7.28;;;5.43;;
70008;SDS011;59542;37.950;-122.338;2023-09-19T05:53:06;9.05;;;5.53;;
70008;SDS011;59542;37.950;-122.338;2023-09-19T05:55:33;7.13;;;5.43;;
70008;SDS011;59542;37.950;-122.338;2023-09-19T05:57:59;7.10;;;5.30;;
70008;SDS011;59542;37.950;-122.338;2023-09-19T06:00:25;7.55;;;5.30;;
70008;SDS011;59542;37.950;-122.338;2023-09-19T06:02:56;7.90;;;5.43;;
70008;SDS011;59542;37.950;-122.338;2023-09-19T06:05:26;7.95;;;5.45;;
70008;SDS011;59542;37.950;-122.338;2023-09-19T06:07:53;6.97;;;5.18;;
70008;SDS011;59542;37.950;-122.338;2023-09-19T06:10:19;8.38;;;5.38;;
70008;SDS011;59542;37.950;-122.338;2023-09-19T06:12:46;7.47;;;5.05;;
70008;SDS011;59542;37.950;-122.338;2023-09-19T06:15:13;7.68;;;5.70;;
70008;SDS011;59542;37.950;-122.338;2023-09-19T06:17:53;7.50;;;5.25;;
70008;SDS011;59542;37.950;-122.338;2023-09-19T06:20:22;6.22;;;4.70;;
70008;SDS011;59542;37.950;-122.338;2023-09-19T06:22:49;5.10;;;4.53;;
70008;SDS011;59542;37.950;-122.338;2023-09-19T06:25:16;7.07;;;5.65;;
70008;SDS011;59542;37.950;-122.338;2023-09-19T06:27:47;6.85;;;5.70;;
70008;SDS011;59542;37.950;-122.338;2023-09-19T06:30:17;9.30;;;5.82;;
70008;SDS011;59542;37.950;-122.338;2023-09-19T06:32:44;7.50;;;5.90;;
70008;SDS011;59542;37.950;-122.338;2023-09-19T06:35:11;7.35;;;6.03;;
70008;SDS011;59542;37.950;-122.338;2023-09-19T06:37:38;10.45;;;6.78;;
70008;SDS011;59542;37.950;-122.338;2023-09-19T06:40:06;8.52;;;5.57;;
70008;SDS011;59542;37.950;-122.338;2023-09-19T06:42:38;9.00;;;6.00;;
70008;SDS011;59542;37.950;-122.338;2023-09-19T06:45:06;7.40;;;5.93;;
70008;SDS011;59542;37.950;-122.338;2023-09-19T06:47:33;9.95;;;6.10;;
70008;SDS011;59542;37.950;-122.338;2023-09-19T06:49:59;6.03;;;4.95;;
70008;SDS011;59542;37.950;-122.338;2023-09-19T06:52:27;9.75;;;5.88;;
70008;SDS011;59542;37.950;-122.338;2023-09-19T06:54:54;10.63;;;6.13;;
70008;SDS011;59542;37.950;-122.338;2023-09-19T06:57:20;9.73;;;6.78;;
70008;SDS011;59542;37.950;-122.338;2023-09-19T06:59:47;8.02;;;6.57;;
70008;SDS011;59542;37.950;-122.338;2023-09-19T07:02:13;12.25;;;6.45;;
70008;SDS011;59542;37.950;-122.338;2023-09-19T07:04:39;8.05;;;5.97;;
70008;SDS011;59542;37.950;-122.338;2023-09-19T07:07:06;10.18;;;6.88;;
70008;SDS011;59542;37.950;-122.338;2023-09-19T07:09:35;7.88;;;6.00;;
70008;SDS011;59542;37.950;-122.338;2023-09-19T07:12:02;10.85;;;7.10;;
70008;SDS011;59542;37.950;-122.338;2023-09-19T07:14:28;10.75;;;6.35;;
70008;SDS011;59542;37.950;-122.338;2023-09-19T07:16:55;8.73;;;6.70;;
70008;SDS011;59542;37.950;-122.338;2023-09-19T07:19:22;10.15;;;6.60;;
70008;SDS011;59542;37.950;-122.338;2023-09-19T07:21:48;10.10;;;6.40;;
70008;SDS011;59542;37.950;-122.338;2023-09-19T07:24:15;10.52;;;7.18;;
70008;SDS011;59542;37.950;-122.338;2023-09-19T07:26:42;8.32;;;6.18;;
70008;SDS011;59542;37.950;-122.338;2023-09-19T07:29:08;8.80;;;6.78;;
70008;SDS011;59542;37.950;-122.338;2023-09-19T07:31:34;10.75;;;7.60;;
70008;SDS011;59542;37.950;-122.338;2023-09-19T07:34:01;8.57;;;6.85;;
70008;SDS011;59542;37.950;-122.338;2023-09-19T07:36:29;9.23;;;6.97;;
70008;SDS011;59542;37.950;-122.338;2023-09-19T07:38:55;7.60;;;6.65;;
70008;SDS011;59542;37.950;-122.338;2023-09-19T07:41:23;8.80;;;7.15;;
70008;SDS011;59542;37.950;-122.338;2023-09-19T07:43:50;9.80;;;6.78;;
70008;SDS011;59542;37.950;-122.338;2023-09-19T07:46:17;9.48;;;6.60;;
70008;SDS011;59542;37.950;-122.338;2023-09-19T07:48:44;9.63;;;6.70;;
70008;SDS011;59542;37.950;-122.338;2023-09-19T07:51:14;10.27;;;6.80;;
70008;SDS011;59542;37.950;-122.338;2023-09-19T07:53:41;11.60;;;6.90;;
70008;SDS011;59542;37.950;-122.338;2023-09-19T07:56:09;10.57;;;6.50;;
70008;SDS011;59542;37.950;-122.338;2023-09-19T07:58:35;9.15;;;6.50;;
70008;SDS011;59542;37.950;-122.338;2023-09-19T08:01:06;8.80;;;6.43;;
70008;SDS011;59542;37.950;-122.338;2023-09-19T08:03:34;8.57;;;6.07;;
70008;SDS011;59542;37.950;-122.338;2023-09-19T08:06:05;9.65;;;6.65;;
70008;SDS011;59542;37.950;-122.338;2023-09-19T08:08:34;9.85;;;6.40;;
70008;SDS011;59542;37.950;-122.338;2023-09-19T08:11:04;7.90;;;6.68;;
70008;SDS011;59542;37.950;-122.338;2023-09-19T08:13:38;8.35;;;6.57;;
70008;SDS011;59542;37.950;-122.338;2023-09-19T08:16:14;9.73;;;6.40;;
70008;SDS011;59542;37.950;-122.338;2023-09-19T08:18:41;7.85;;;6.13;;
70008;SDS011;59542;37.950;-122.338;2023-09-19T08:21:08;8.27;;;6.78;;
70008;SDS011;59542;37.950;-122.338;2023-09-19T08:23:37;10.52;;;6.07;;
70008;SDS011;59542;37.950;-122.338;2023-09-19T08:26:04;11.18;;;6.55;;
70008;SDS011;59542;37.950;-122.338;2023-09-19T08:28:34;7.20;;;5.70;;
70008;SDS011;59542;37.950;-122.338;2023-09-19T08:31:01;8.77;;;6.50;;
70008;SDS011;59542;37.950;-122.338;2023-09-19T08:33:34;7.57;;;5.65;;
70008;SDS011;59542;37.950;-122.338;2023-09-19T08:36:02;7.00;;;5.60;;
70008;SDS011;59542;37.950;-122.338;2023-09-19T08:38:33;8.25;;;5.50;;
70008;SDS011;59542;37.950;-122.338;2023-09-19T08:41:04;9.52;;;6.90;;
70008;SDS011;59542;37.950;-122.338;2023-09-19T08:43:32;11.25;;;7.00;;
70008;SDS011;59542;37.950;-122.338;2023-09-19T08:48:31;9.88;;;6.57;;
70008;SDS011;59542;37.950;-122.338;2023-09-19T08:51:18;8.90;;;6.70;;
70008;SDS011;59542;37.950;-122.338;2023-09-19T08:54:08;9.93;;;6.22;;
70008;SDS011;59542;37.950;-122.338;2023-09-19T08:56:39;8.70;;;6.50;;
70008;SDS011;59542;37.950;-122.338;2023-09-19T08:59:08;10.45;;;6.85;;
70008;SDS011;59542;37.950;-122.338;2023-09-19T09:01:36;14.50;;;8.50;;
70008;SDS011;59542;37.950;-122.338;2023-09-19T09:04:08;9.48;;;7.00;;
70008;SDS011;59542;37.950;-122.338;2023-09-19T09:06:38;11.98;;;7.40;;
70008;SDS011;59542;37.950;-122.338;2023-09-19T09:09:05;10.98;;;7.47;;
70008;SDS011;59542;37.950;-122.338;2023-09-19T09:11:34;9.48;;;6.90;;
70008;SDS011;59542;37.950;-122.338;2023-09-19T09:14:05;11.27;;;7.50;;
70008;SDS011;59542;37.950;-122.338;2023-09-19T09:16:36;14.05;;;7.97;;
70008;SDS011;59542;37.950;-122.338;2023-09-19T09:19:02;8.70;;;7.22;;
70008;SDS011;59542;37.950;-122.338;2023-09-19T09:21:30;10.00;;;7.10;;
70008;SDS011;59542;37.950;-122.338;2023-09-19T09:26:59;9.07;;;6.93;;
70008;SDS011;59542;37.950;-122.338;2023-09-19T09:32:21;10.30;;;6.60;;
70008;SDS011;59542;37.950;-122.338;2023-09-19T09:35:02;9.03;;;6.13;;
70008;SDS011;59542;37.950;-122.338;2023-09-19T09:37:39;9.63;;;6.82;;
70008;SDS011;59542;37.950;-122.338;2023-09-19T09:40:09;8.63;;;7.03;;
70008;SDS011;59542;37.950;-122.338;2023-09-19T09:42:38;8.43;;;6.13;;
70008;SDS011;59542;37.950;-122.338;2023-09-19T09:45:18;10.57;;;7.05;;
70008;SDS011;59542;37.950;-122.338;2023-09-19T09:48:02;7.90;;;6.75;;
70008;SDS011;59542;37.950;-122.338;2023-09-19T09:50:39;8.93;;;7.07;;
70008;SDS011;59542;37.950;-122.338;2023-09-19T09:56:09;11.25;;;7.03;;
70008;SDS011;59542;37.950;-122.338;2023-09-19T09:58:38;8.15;;;6.43;;
70008;SDS011;59542;37.950;-122.338;2023-09-19T10:01:26;10.90;;;7.07;;
70008;SDS011;59542;37.950;-122.338;2023-09-19T10:03:59;7.88;;;6.78;;
70008;SDS011;59542;37.950;-122.338;2023-09-19T10:06:25;8.65;;;6.68;;
70008;SDS011;59542;37.950;-122.338;2023-09-19T10:09:02;7.90;;;6.28;;
70008;SDS011;59542;37.950;-122.338;2023-09-19T10:11:45;10.43;;;7.13;;
70008;SDS011;59542;37.950;-122.338;2023-09-19T10:14:16;7.30;;;6.47;;
70008;SDS011;59542;37.950;-122.338;2023-09-19T10:16:49;7.63;;;6.18;;
70008;SDS011;59542;37.950;-122.338;2023-09-19T10:19:30;9.02;;;6.57;;
70008;SDS011;59542;37.950;-122.338;2023-09-19T10:22:02;9.32;;;7.32;;
70008;SDS011;59542;37.950;-122.338;2023-09-19T10:24:30;8.65;;;7.00;;
70008;SDS011;59542;37.950;-122.338;2023-09-19T10:27:01;9.07;;;7.22;;
70008;SDS011;59542;37.950;-122.338;2023-09-19T10:29:29;9.98;;;6.88;;
70008;SDS011;59542;37.950;-122.338;2023-09-19T10:32:02;8.00;;;6.97;;
70008;SDS011;59542;37.950;-122.338;2023-09-19T10:34:33;8.98;;;7.32;;
70008;SDS011;59542;37.950;-122.338;2023-09-19T10:37:01;8.95;;;7.43;;
70008;SDS011;59542;37.950;-122.338;2023-09-19T10:39:31;10.25;;;7.35;;
70008;SDS011;59542;37.950;-122.338;2023-09-19T10:42:01;8.75;;;7.32;;
70008;SDS011;59542;37.950;-122.338;2023-09-19T10:44:31;9.18;;;6.97;;
70008;SDS011;59542;37.950;-122.338;2023-09-19T10:46:58;11.52;;;8.07;;
70008;SDS011;59542;37.950;-122.338;2023-09-19T10:49:25;9.82;;;7.97;;
70008;SDS011;59542;37.950;-122.338;2023-09-19T10:51:52;11.45;;;7.93;;
70008;SDS011;59542;37.950;-122.338;2023-09-19T10:54:24;12.65;;;9.25;;
70008;SDS011;59542;37.950;-122.338;2023-09-19T10:56:54;8.93;;;7.97;;
70008;SDS011;59542;37.950;-122.338;2023-09-19T10:59:24;9.05;;;7.65;;
70008;SDS011;59542;37.950;-122.338;2023-09-19T11:01:51;11.38;;;8.60;;
70008;SDS011;59542;37.950;-122.338;2023-09-19T11:04:22;11.63;;;8.45;;
70008;SDS011;59542;37.950;-122.338;2023-09-19T11:07:10;10.07;;;8.35;;
70008;SDS011;59542;37.950;-122.338;2023-09-19T11:09:44;9.90;;;8.15;;
70008;SDS011;59542;37.950;-122.338;2023-09-19T11:15:06;10.30;;;7.78;;
70008;SDS011;59542;37.950;-122.338;2023-09-19T11:30:53;10.52;;;8.73;;
70008;SDS011;59542;37.950;-122.338;2023-09-19T11:36:08;10.32;;;8.40;;
70008;SDS011;59542;37.950;-122.338;2023-09-19T11:46:29;11.18;;;9.00;;
70008;SDS011;59542;37.950;-122.338;2023-09-19T11:49:05;11.82;;;8.88;;
70008;SDS011;59542;37.950;-122.338;2023-09-19T11:51:42;11.35;;;8.50;;
70008;SDS011;59542;37.950;-122.338;2023-09-19T11:54:14;12.60;;;9.27;;
70008;SDS011;59542;37.950;-122.338;2023-09-19T11:56:44;12.35;;;9.35;;
70008;SDS011;59542;37.950;-122.338;2023-09-19T11:59:11;11.10;;;8.82;;
70008;SDS011;59542;37.950;-122.338;2023-09-19T12:01:49;10.13;;;8.23;;
70008;SDS011;59542;37.950;-122.338;2023-09-19T12:04:44;12.05;;;8.70;;
70008;SDS011;59542;37.950;-122.338;2023-09-19T12:07:11;10.70;;;7.90;;
70008;SDS011;59542;37.950;-122.338;2023-09-19T12:09:42;9.95;;;8.02;;
70008;SDS011;59542;37.950;-122.338;2023-09-19T12:12:13;9.85;;;7.35;;
70008;SDS011;59542;37.950;-122.338;2023-09-19T12:14:55;9.73;;;7.88;;
70008;SDS011;59542;37.950;-122.338;2023-09-19T12:17:24;9.20;;;7.75;;
70008;SDS011;59542;37.950;-122.338;2023-09-19T12:20:16;11.05;;;8.00;;
70008;SDS011;59542;37.950;-122.338;2023-09-19T12:22:42;9.05;;;7.47;;
70008;SDS011;59542;37.950;-122.338;2023-09-19T12:25:10;8.55;;;7.63;;
70008;SDS011;59542;37.950;-122.338;2023-09-19T12:27:41;9.60;;;7.55;;
70008;SDS011;59542;37.950;-122.338;2023-09-19T12:30:21;9.73;;;8.10;;
70008;SDS011;59542;37.950;-122.338;2023-09-19T12:32:53;8.45;;;6.93;;
70008;SDS011;59542;37.950;-122.338;2023-09-19T12:35:27;9.52;;;7.65;;
70008;SDS011;59542;37.950;-122.338;2023-09-19T12:37:55;9.80;;;7.97;;
70008;SDS011;59542;37.950;-122.338;2023-09-19T12:40:22;9.68;;;7.60;;
70008;SDS011;59542;37.950;-122.338;2023-09-19T12:42:53;9.52;;;7.18;;
70008;SDS011;59542;37.950;-122.338;2023-09-19T12:45:29;11.65;;;8.77;;
70008;SDS011;59542;37.950;-122.338;2023-09-19T12:53:26;11.05;;;8.35;;
70008;SDS011;59542;37.950;-122.338;2023-09-19T12:55:58;10.30;;;8.18;;
70008;SDS011;59542;37.950;-122.338;2023-09-19T12:58:25;9.10;;;7.72;;
70008;SDS011;59542;37.950;-122.338;2023-09-19T13:00:52;14.77;;;9.48;;
70008;SDS011;59542;37.950;-122.338;2023-09-19T13:05:53;12.90;;;9.90;;
70008;SDS011;59542;37.950;-122.338;2023-09-19T13:08:21;9.93;;;7.78;;
70008;SDS011;59542;37.950;-122.338;2023-09-19T13:13:39;15.18;;;9.32;;
70008;SDS011;59542;37.950;-122.338;2023-09-19T13:16:07;11.40;;;9.32;;
70008;SDS011;59542;37.950;-122.338;2023-09-19T13:21:34;11.82;;;9.63;;
70008;SDS011;59542;37.950;-122.338;2023-09-19T13:27:05;14.30;;;10.23;;
70008;SDS011;59542;37.950;-122.338;2023-09-19T13:29:34;13.48;;;10.75;;
70008;SDS011;59542;37.950;-122.338;2023-09-19T13:32:00;11.57;;;9.05;;
70008;SDS011;59542;37.950;-122.338;2023-09-19T13:34:27;13.85;;;9.93;;
70008;SDS011;59542;37.950;-122.338;2023-09-19T13:36:54;11.40;;;9.30;;
70008;SDS011;59542;37.950;-122.338;2023-09-19T13:39:21;14.35;;;9.05;;
70008;SDS011;59542;37.950;-122.338;2023-09-19T13:41:50;12.23;;;8.68;;
70008;SDS011;59542;37.950;-122.338;2023-09-19T13:44:16;11.13;;;8.57;;
70008;SDS011;59542;37.950;-122.338;2023-09-19T13:46:43;13.40;;;9.38;;
70008;SDS011;59542;37.950;-122.338;2023-09-19T13:49:11;11.45;;;9.60;;
70008;SDS011;59542;37.950;-122.338;2023-09-19T13:51:37;10.18;;;9.05;;
70008;SDS011;59542;37.950;-122.338;2023-09-19T13:54:03;13.20;;;9.43;;
70008;SDS011;59542;37.950;-122.338;2023-09-19T13:56:30;12.63;;;9.02;;
70008;SDS011;59542;37.950;-122.338;2023-09-19T13:58:57;13.35;;;8.57;;
70008;SDS011;59542;37.950;-122.338;2023-09-19T14:01:23;12.63;;;8.77;;
70008;SDS011;59542;37.950;-122.338;2023-09-19T14:03:51;12.80;;;9.57;;
70008;SDS011;59542;37.950;-122.338;2023-09-19T14:06:19;15.60;;;9.85;;
70008;SDS011;59542;37.950;-122.338;2023-09-19T14:08:45;13.73;;;9.68;;
70008;SDS011;59542;37.950;-122.338;2023-09-19T14:11:15;12.25;;;8.88;;
70008;SDS011;59542;37.950;-122.338;2023-09-19T14:13:41;13.77;;;8.40;;
70008;SDS011;59542;37.950;-122.338;2023-09-19T14:16:14;12.93;;;9.10;;
70008;SDS011;59542;37.950;-122.338;2023-09-19T14:18:42;10.13;;;7.55;;
70008;SDS011;59542;37.950;-122.338;2023-09-19T14:21:11;11.60;;;8.25;;
70008;SDS011;59542;37.950;-122.338;2023-09-19T14:23:40;14.13;;;7.97;;
70008;SDS011;59542;37.950;-122.338;2023-09-19T14:26:11;11.57;;;8.18;;
70008;SDS011;59542;37.950;-122.338;2023-09-19T14:28:37;9.35;;;7.45;;
70008;SDS011;59542;37.950;-122.338;2023-09-19T14:31:05;11.13;;;7.85;;
70008;SDS011;59542;37.950;-122.338;2023-09-19T14:33:35;11.00;;;7.97;;
70008;SDS011;59542;37.950;-122.338;2023-09-19T14:36:08;11.88;;;8.38;;
70008;SDS011;59542;37.950;-122.338;2023-09-19T14:38:36;12.43;;;8.20;;
70008;SDS011;59542;37.950;-122.338;2023-09-19T14:41:05;13.20;;;8.45;;
70008;SDS011;59542;37.950;-122.338;2023-09-19T14:43:32;11.13;;;8.15;;
70008;SDS011;59542;37.950;-122.338;2023-09-19T14:46:05;10.30;;;8.27;;
70008;SDS011;59542;37.950;-122.338;2023-09-19T14:48:37;9.77;;;8.10;;
70008;SDS011;59542;37.950;-122.338;2023-09-19T14:51:04;10.23;;;7.40;;
70008;SDS011;59542;37.950;-122.338;2023-09-19T14:53:31;11.38;;;8.30;;
70008;SDS011;59542;37.950;-122.338;2023-09-19T14:56:01;15.07;;;7.80;;
70008;SDS011;59542;37.950;-122.338;2023-09-19T14:58:31;11.55;;;7.95;;
70008;SDS011;59542;37.950;-122.338;2023-09-19T15:01:05;9.88;;;7.68;;
70008;SDS011;59542;37.950;-122.338;2023-09-19T15:03:32;9.55;;;7.72;;
70008;SDS011;59542;37.950;-122.338;2023-09-19T15:06:05;9.95;;;7.10;;
70008;SDS011;59542;37.950;-122.338;2023-09-19T15:08:33;9.93;;;7.50;;
70008;SDS011;59542;37.950;-122.338;2023-09-19T15:11:09;10.07;;;7.30;;
70008;SDS011;59542;37.950;-122.338;2023-09-19T15:13:35;9.43;;;7.68;;
70008;SDS011;59542;37.950;-122.338;2023-09-19T15:16:03;11.68;;;8.32;;
70008;SDS011;59542;37.950;-122.338;2023-09-19T15:18:34;10.80;;;8.48;;
70008;SDS011;59542;37.950;-122.338;2023-09-19T15:21:03;11.07;;;9.15;;
70008;SDS011;59542;37.950;-122.338;2023-09-19T15:23:30;14.27;;;9.60;;
70008;SDS011;59542;37.950;-122.338;2023-09-19T15:26:08;12.30;;;8.77;;
70008;SDS011;59542;37.950;-122.338;2023-09-19T15:28:38;12.93;;;9.18;;
70008;SDS011;59542;37.950;-122.338;2023-09-19T15:31:06;11.93;;;9.10;;
70008;SDS011;59542;37.950;-122.338;2023-09-19T15:33:34;12.63;;;9.23;;
70008;SDS011;59542;37.950;-122.338;2023-09-19T15:41:25;10.85;;;9.02;;
70008;SDS011;59542;37.950;-122.338;2023-09-19T15:43:56;12.23;;;8.85;;
70008;SDS011;59542;37.950;-122.338;2023-09-19T15:46:30;11.60;;;10.15;;